Time;durP1;ratioP1;P1;durP2;ratioP2;P2;SDS_P1;SDS_P2;PMS_P1;PMS_P2;Temp;Humidity;BMP_temperature;BMP_pressure;BME280_temperature;BME280_humidity;BME280_pressure;Samples;Min_cycle;Max_cycle;Signal;HPM_P1;HPM_P2
2023/10/14 00:03:27;;;;;;;13.00;7.30;;;;;;;21.56;88.75;99236.45;672194;1276;138679;-79
2023/10/14 00:18:28;;;;;;;19.30;6.30;;;;;;;21.77;86.87;99209.69;669428;1263;139232;-79
2023/10/14 00:33:35;;;;;;;14.90;6.60;;;;;;;21.76;86.18;99197.88;669708;1274;140311;-80
2023/10/14 00:48:40;;;;;;;16.00;7.40;;;;;;;21.61;86.60;99198.89;671277;1263;139162;-80
2023/10/14 01:03:48;;;;;;;11.10;6.10;;;;;;;21.45;86.96;99190.15;670024;1263;140533;-80
2023/10/14 01:18:52;;;;;;;13.90;6.00;;;;;;;21.36;86.83;99182.95;673466;1263;138731;-80
2023/10/14 01:33:55;;;;;;;16.30;6.30;;;;;;;21.20;87.62;99157.70;668196;1264;139169;-80
2023/10/14 01:49:16;;;;;;;13.30;5.60;;;;;;;20.96;88.45;99103.95;667783;1264;138913;-81
2023/10/14 02:04:20;;;;;;;13.90;5.70;;;;;;;21.02;87.70;99048.23;676204;1263;138886;-81
2023/10/14 02:34:30;;;;;;;13.10;5.30;;;;;;;19.79;92.05;99005.25;668699;1264;139008;-80
2023/10/14 02:49:39;;;;;;;18.20;7.50;;;;;;;20.11;90.20;98970.19;670485;1263;138861;-80
2023/10/14 03:19:55;;;;;;;14.00;6.20;;;;;;;19.38;93.39;98891.10;672669;1262;126104;-80
2023/10/14 03:35:22;;;;;;;12.40;6.70;;;;;;;20.07;87.61;98863.73;669630;1275;138920;-80
2023/10/14 03:50:24;;;;;;;13.50;5.70;;;;;;;19.43;88.90;98856.54;667622;1260;198099;-80
2023/10/14 04:05:27;;;;;;;18.60;7.80;;;;;;;19.40;88.17;98855.85;668293;1259;138407;-80
2023/10/14 04:20:32;;;;;;;33.20;11.30;;;;;;;19.18;88.73;98839.77;676482;1261;139371;-80
2023/10/14 04:35:39;;;;;;;36.70;12.00;;;;;;;19.02;87.94;98829.56;676272;1261;139703;-80
2023/10/14 04:50:46;;;;;;;14.40;5.30;;;;;;;19.16;84.10;98813.30;671031;1264;140097;-80
2023/10/14 05:05:56;;;;;;;12.00;5.30;;;;;;;19.82;77.55;98804.61;669039;1263;138587;-80
2023/10/14 05:21:12;;;;;;;12.10;5.10;;;;;;;20.01;74.88;98804.44;670460;1263;138721;-79
2023/10/14 05:36:15;;;;;;;10.80;5.10;;;;;;;20.85;70.46;98801.21;671024;1264;140644;-79
2023/10/14 05:51:19;;;;;;;12.30;5.10;;;;;;;20.27;71.60;98785.73;671388;1264;139001;-79
2023/10/14 06:20:57;;;;;;;8.40;4.20;;;;;;;20.53;68.80;98777.06;651572;1301;545604;-80
2023/10/14 06:36:04;;;;;;;12.80;5.60;;;;;;;20.49;69.09;98783.45;666532;1276;137898;-81
2023/10/14 06:51:09;;;;;;;13.40;6.40;;;;;;;20.42;69.72;98782.18;663449;1274;137690;-80
2023/10/14 07:06:12;;;;;;;14.40;5.50;;;;;;;20.56;69.45;98779.79;663424;1277;137609;-82
2023/10/14 07:21:15;;;;;;;12.40;4.90;;;;;;;20.59;70.47;98765.83;668642;1273;138858;-80
2023/10/14 07:36:19;;;;;;;15.00;5.60;;;;;;;20.75;70.47;98753.91;670425;1273;138438;-80
2023/10/14 07:51:23;;;;;;;11.50;5.10;;;;;;;21.01;69.48;98739.42;670092;1269;139568;-82
2023/10/14 08:06:34;;;;;;;15.20;4.90;;;;;;;21.58;67.67;98734.54;669079;1275;137873;-80
2023/10/14 08:21:37;;;;;;;13.70;6.00;;;;;;;21.95;66.61;98741.95;665526;1272;138788;-80
2023/10/14 13:13:58;;;;;;;12.50;4.40;;;;;;;17.18;88.63;99186.16;649600;1298;545548;-79
2023/10/14 13:29:01;;;;;;;16.40;6.90;;;;;;;17.69;81.07;99185.52;663839;1275;139659;-80
2023/10/14 13:44:05;;;;;;;10.10;5.00;;;;;;;17.83;78.89;99218.45;664491;1270;138198;-78
2023/10/14 13:59:22;;;;;;;15.50;14.00;;;;;;;18.00;76.30;99232.98;664166;1282;139730;-79
2023/10/14 15:09:36;;;;;;;10.30;5.60;;;;;;;17.13;67.86;99287.96;650287;1307;545482;-80
2023/10/14 15:24:40;;;;;;;11.70;4.50;;;;;;;16.85;68.13;99287.73;664766;1272;138689;-79
2023/10/14 15:39:44;;;;;;;12.00;5.00;;;;;;;16.54;69.43;99292.96;663867;1271;139241;-80
2023/10/14 15:54:47;;;;;;;8.80;5.10;;;;;;;15.59;71.75;99308.81;669141;1260;137689;-80
2023/10/14 16:09:52;;;;;;;50.40;31.40;;;;;;;15.06;73.74;99324.21;669967;1259;137841;-80
2023/10/14 16:24:55;;;;;;;11.30;7.20;;;;;;;14.63;73.74;99346.79;668411;1263;139932;-79
2023/10/14 16:39:59;;;;;;;15.40;8.80;;;;;;;14.37;71.00;99358.74;668912;1262;139340;-79
2023/10/14 16:55:03;;;;;;;12.50;4.50;;;;;;;14.30;68.85;99386.58;669488;1259;138946;-81
2023/10/14 17:10:09;;;;;;;16.20;7.50;;;;;;;14.15;68.18;99395.36;669688;1262;139451;-80
2023/10/14 17:25:13;;;;;;;29.30;11.60;;;;;;;14.01;68.70;99391.91;669755;1260;138557;-80
2023/10/14 17:40:20;;;;;;;78.10;31.40;;;;;;;13.97;69.34;99401.53;670221;1262;139319;-80
2023/10/14 17:55:25;;;;;;;114.20;46.10;;;;;;;13.94;70.15;99398.66;668422;1259;139011;-79
2023/10/14 18:10:29;;;;;;;108.20;40.10;;;;;;;13.78;71.21;99407.20;671675;1264;141775;-80
2023/10/14 18:25:38;;;;;;;43.10;14.30;;;;;;;13.40;72.57;99440.65;673709;1264;140847;-80
2023/10/14 18:40:46;;;;;;;21.40;8.10;;;;;;;13.22;73.96;99444.11;668410;1265;139748;-80
2023/10/14 18:55:50;;;;;;;10.50;5.10;;;;;;;13.03;74.94;99453.41;668498;1262;140256;-80
2023/10/14 19:10:56;;;;;;;14.40;6.20;;;;;;;13.04;76.63;99443.30;673920;1261;139478;-80
2023/10/14 19:26:02;;;;;;;10.20;6.30;;;;;;;13.10;77.64;99448.77;668111;1265;139477;-81
2023/10/14 19:41:05;;;;;;;11.40;4.20;;;;;;;12.92;78.65;99470.89;668619;1264;141215;-81
2023/10/14 19:56:11;;;;;;;9.50;3.80;;;;;;;12.71;79.88;99489.02;668217;1260;139936;-79
2023/10/14 20:11:15;;;;;;;8.00;2.60;;;;;;;12.63;79.24;99507.42;668223;1265;139958;-79
2023/10/14 20:26:18;;;;;;;8.40;2.40;;;;;;;12.61;76.36;99514.11;669138;1264;139783;-81
2023/10/14 20:41:22;;;;;;;9.40;2.50;;;;;;;12.58;74.88;99520.79;672486;1262;139033;-81
2023/10/14 20:56:25;;;;;;;9.10;2.10;;;;;;;12.40;73.96;99529.55;674246;1259;139026;-80
2023/10/14 21:11:28;;;;;;;9.60;2.60;;;;;;;12.06;74.19;99525.41;672274;1276;139238;-80
2023/10/14 21:26:38;;;;;;;7.90;2.80;;;;;;;11.80;74.65;99520.83;672908;1265;138961;-79
2023/10/14 21:41:41;;;;;;;5.50;2.50;;;;;;;11.56;75.64;99529.63;672713;1266;140101;-78
2023/10/14 21:56:45;;;;;;;8.00;2.60;;;;;;;11.26;77.36;99527.13;673822;1263;138914;-79
2023/10/14 22:11:49;;;;;;;7.90;2.60;;;;;;;11.08;78.73;99536.80;672840;1264;138917;-79
2023/10/14 22:26:53;;;;;;;10.30;3.00;;;;;;;10.94;80.40;99532.96;672041;1265;138891;-80
2023/10/14 22:41:57;;;;;;;5.60;2.50;;;;;;;10.76;81.85;99528.13;671861;1262;139075;-80
2023/10/14 22:57:00;;;;;;;8.80;3.00;;;;;;;10.58;82.94;99541.48;670747;1264;139043;-80
2023/10/14 23:12:05;;;;;;;6.80;2.60;;;;;;;10.40;85.06;99551.15;672889;1260;139642;-80
2023/10/14 23:27:10;;;;;;;3.20;1.60;;;;;;;10.25;86.13;99555.67;673287;1266;138828;-80
2023/10/14 23:42:14;;;;;;;5.50;1.60;;;;;;;10.10;87.36;99559.10;673269;1265;140869;-80
2023/10/14 23:57:19;;;;;;;6.40;2.10;;;;;;;10.04;88.39;99555.66;670524;1266;139951;-79
